createdAt,value
2022-08-31T00:00:21.139Z,100807.47
2022-08-31T00:03:10.792Z,100798.84
2022-08-31T00:05:40.678Z,100793.19
2022-08-31T00:08:14.536Z,100804.03
2022-08-31T00:10:47.931Z,100799.75
2022-08-31T00:13:20.607Z,100796.91
2022-08-31T00:15:54.205Z,100803.03
2022-08-31T00:18:25.155Z,100811.81
2022-08-31T00:20:53.011Z,100815.69
2022-08-31T00:23:31.676Z,100825.28
2022-08-31T00:26:06.294Z,100825.28
2022-08-31T00:28:36.145Z,100819.19
2022-08-31T00:31:17.145Z,100808.00
2022-08-31T00:34:06.585Z,100809.41
2022-08-31T00:36:37.313Z,100796.09
2022-08-31T00:39:13.499Z,100795.41
2022-08-31T00:41:44.139Z,100794.63
2022-08-31T00:44:16.365Z,100787.03
2022-08-31T00:46:49.591Z,100784.53
2022-08-31T00:49:25.569Z,100798.31
2022-08-31T00:51:59.592Z,100790.84
2022-08-31T00:54:36.038Z,100786.81
2022-08-31T00:57:14.361Z,100785.44
2022-08-31T00:59:48.141Z,100784.38
2022-08-31T01:02:20.106Z,100792.78
2022-08-31T01:04:51.357Z,100791.03
2022-08-31T01:07:25.261Z,100797.69
2022-08-31T01:09:56.253Z,100802.50
2022-08-31T01:12:28.938Z,100804.91
2022-08-31T01:15:00.974Z,100805.13
2022-08-31T01:17:36.671Z,100812.13
2022-08-31T01:20:12.530Z,100812.81
2022-08-31T01:22:52.505Z,100800.81
2022-08-31T01:25:33.427Z,100803.03
2022-08-31T01:28:07.380Z,100809.84
2022-08-31T01:31:06.817Z,100809.34
2022-08-31T01:33:41.588Z,100810.31
2022-08-31T01:36:13.156Z,100811.09
2022-08-31T01:38:53.096Z,100815.41
2022-08-31T01:41:22.516Z,100827.97
2022-08-31T01:43:58.453Z,100819.88
2022-08-31T01:46:31.923Z,100816.13
2022-08-31T01:49:08.032Z,100826.28
2022-08-31T01:51:44.630Z,100818.00
2022-08-31T01:54:24.026Z,100811.97
2022-08-31T01:56:54.339Z,100811.50
2022-08-31T01:59:46.786Z,100808.78
2022-08-31T02:02:37.994Z,100807.00
2022-08-31T02:05:06.559Z,100811.16
2022-08-31T02:07:43.794Z,100813.38
2022-08-31T02:10:16.668Z,100806.09
2022-08-31T02:12:49.044Z,100796.81
2022-08-31T02:15:19.362Z,100797.13
2022-08-31T02:17:58.018Z,100805.41
2022-08-31T02:20:31.584Z,100804.91
2022-08-31T02:23:07.092Z,100802.66
2022-08-31T02:25:37.384Z,100796.13
2022-08-31T02:28:07.490Z,100806.28
2022-08-31T02:30:38.811Z,100797.81
2022-08-31T02:33:15.296Z,100800.88
2022-08-31T02:35:45.896Z,100790.97
2022-08-31T02:38:21.404Z,100793.44
2022-08-31T02:40:55.194Z,100792.53
2022-08-31T02:43:30.723Z,100796.56
2022-08-31T02:46:00.905Z,100797.38
2022-08-31T02:48:37.934Z,100804.38
2022-08-31T02:51:11.467Z,100801.13
2022-08-31T02:53:46.750Z,100800.31
2022-08-31T02:56:23.070Z,100796.84
2022-08-31T02:58:59.204Z,100803.00
2022-08-31T03:01:29.737Z,100786.56
2022-08-31T03:04:04.420Z,100790.91
2022-08-31T03:06:37.599Z,100802.66
2022-08-31T03:09:11.358Z,100804.38
2022-08-31T03:12:18.372Z,100810.69
2022-08-31T03:14:54.987Z,100814.00
2022-08-31T03:17:29.224Z,100813.78
2022-08-31T03:20:02.142Z,100813.06
2022-08-31T03:22:37.098Z,100811.53
2022-08-31T03:25:14.732Z,100813.50
2022-08-31T03:27:48.273Z,100813.41
2022-08-31T03:30:19.628Z,100815.41
2022-08-31T03:33:05.827Z,100820.06
2022-08-31T03:35:43.793Z,100824.81
2022-08-31T03:38:20.565Z,100819.97
2022-08-31T03:40:59.585Z,100821.66
2022-08-31T03:43:28.041Z,100827.59
2022-08-31T03:46:01.919Z,100825.44
2022-08-31T03:48:37.346Z,100818.22
2022-08-31T03:51:06.529Z,100822.66
2022-08-31T03:53:45.698Z,100821.41
2022-08-31T03:56:23.384Z,100828.75
2022-08-31T03:58:54.794Z,100824.03
2022-08-31T04:02:00.028Z,100828.28
2022-08-31T04:04:55.029Z,100820.56
2022-08-31T04:07:50.853Z,100817.09
2022-08-31T04:10:44.432Z,100821.22
2022-08-31T04:13:38.886Z,100820.53
2022-08-31T04:16:24.635Z,100829.88
2022-08-31T04:19:16.749Z,100826.34
2022-08-31T04:22:07.048Z,100836.25
2022-08-31T04:24:42.979Z,100835.19
2022-08-31T04:27:14.255Z,100830.25
2022-08-31T04:29:44.452Z,100836.28
2022-08-31T04:32:17.536Z,100827.06
2022-08-31T04:35:17.885Z,100830.78
2022-08-31T04:37:48.119Z,100839.69
2022-08-31T04:40:25.600Z,100840.38
2022-08-31T04:42:58.708Z,100838.34
2022-08-31T04:45:32.246Z,100838.34
2022-08-31T04:48:05.081Z,100839.13
2022-08-31T04:50:42.309Z,100839.97
2022-08-31T04:53:17.403Z,100835.13
2022-08-31T04:55:49.685Z,100837.22
2022-08-31T04:58:23.733Z,100838.53
2022-08-31T05:01:00.736Z,100844.88
2022-08-31T05:03:51.479Z,100840.19
2022-08-31T05:06:25.275Z,100850.84
2022-08-31T05:08:57.779Z,100852.13
2022-08-31T05:11:29.606Z,100852.13
2022-08-31T05:14:02.525Z,100863.06
2022-08-31T05:16:44.333Z,100853.31
2022-08-31T05:19:14.648Z,100853.88
2022-08-31T05:21:45.123Z,100863.53
2022-08-31T05:24:15.167Z,100860.66
2022-08-31T05:26:50.992Z,100862.00
2022-08-31T05:29:23.728Z,100870.69
2022-08-31T05:32:10.469Z,100866.03
2022-08-31T05:34:43.645Z,100859.13
2022-08-31T05:37:13.837Z,100861.88
2022-08-31T05:39:42.120Z,100877.00
2022-08-31T05:42:15.425Z,100867.44
2022-08-31T05:44:49.427Z,100868.75
2022-08-31T05:47:17.878Z,100866.03
2022-08-31T05:49:49.681Z,100866.53
2022-08-31T05:52:24.837Z,100861.34
2022-08-31T05:54:55.510Z,100863.78
2022-08-31T05:57:27.028Z,100870.78
2022-08-31T06:00:00.539Z,100874.09
2022-08-31T06:02:33.673Z,100874.69
2022-08-31T06:05:01.402Z,100877.53
2022-08-31T06:07:37.125Z,100875.69
2022-08-31T06:10:15.062Z,100876.19
2022-08-31T06:12:44.638Z,100883.88
2022-08-31T06:15:12.082Z,100871.59
2022-08-31T06:17:40.587Z,100889.25
2022-08-31T06:20:18.314Z,100884.53
2022-08-31T06:22:48.036Z,100881.09
2022-08-31T06:25:29.099Z,100883.88
2022-08-31T06:28:00.020Z,100877.84
2022-08-31T06:30:27.827Z,100889.09
2022-08-31T06:32:58.624Z,100885.72
2022-08-31T06:35:41.526Z,100884.53
2022-08-31T06:38:27.859Z,100885.22
2022-08-31T06:41:36.619Z,100880.59
2022-08-31T06:44:38.944Z,100878.06
2022-08-31T06:47:23.930Z,100887.63
2022-08-31T06:50:00.310Z,100885.91
2022-08-31T06:52:28.554Z,100884.94
2022-08-31T06:55:16.560Z,100892.22
2022-08-31T06:58:11.897Z,100894.69
2022-08-31T07:01:07.377Z,100887.50
2022-08-31T07:04:02.513Z,100891.97
2022-08-31T07:06:33.942Z,100889.69
2022-08-31T07:09:07.730Z,100892.22
2022-08-31T07:11:44.294Z,100886.53
2022-08-31T07:14:17.939Z,100886.13
2022-08-31T07:16:45.820Z,100888.22
2022-08-31T07:19:14.134Z,100886.41
2022-08-31T07:21:45.799Z,100893.97
2022-08-31T07:24:14.140Z,100893.50
2022-08-31T07:26:44.984Z,100895.31
2022-08-31T07:29:19.844Z,100892.44
2022-08-31T07:31:48.630Z,100890.78
2022-08-31T07:34:34.445Z,100896.47
2022-08-31T07:37:41.915Z,100904.09
2022-08-31T07:40:30.982Z,100904.91
2022-08-31T07:43:05.101Z,100902.50
2022-08-31T07:45:39.346Z,100897.66
2022-08-31T07:48:12.612Z,100908.25
2022-08-31T07:51:05.290Z,100903.41
2022-08-31T07:53:58.247Z,100920.44
2022-08-31T07:56:37.697Z,100913.31
2022-08-31T07:59:20.722Z,100909.63
2022-08-31T08:01:51.509Z,100909.41
2022-08-31T08:04:27.683Z,100909.84
2022-08-31T08:07:18.287Z,100909.50
2022-08-31T08:13:59.722Z,100913.94
2022-08-31T08:16:42.386Z,100917.16
2022-08-31T08:19:42.698Z,100921.19
2022-08-31T08:22:51.860Z,100916.53
2022-08-31T08:25:46.318Z,100922.75
2022-08-31T08:28:40.475Z,100921.25
2022-08-31T08:31:14.923Z,100915.72
2022-08-31T08:33:45.218Z,100923.56
2022-08-31T08:36:13.544Z,100925.72
2022-08-31T08:38:47.526Z,100924.81
2022-08-31T08:41:25.274Z,100920.78
2022-08-31T08:43:58.717Z,100915.72
2022-08-31T08:47:37.851Z,100920.09
2022-08-31T08:49:48.817Z,100924.25
2022-08-31T08:52:22.982Z,100926.88
2022-08-31T08:54:51.437Z,100914.53
2022-08-31T08:57:26.487Z,100913.06
2022-08-31T09:00:00.279Z,100909.84
2022-08-31T09:02:35.202Z,100910.28
2022-08-31T09:05:07.952Z,100904.03
2022-08-31T09:08:05.285Z,100908.88
2022-08-31T09:10:34.875Z,100913.78
2022-08-31T09:13:02.898Z,100918.81
2022-08-31T09:15:38.797Z,100916.34
2022-08-31T09:18:24.916Z,100923.56
2022-08-31T09:21:08.286Z,100917.44
2022-08-31T09:23:37.906Z,100910.84
2022-08-31T09:26:08.342Z,100896.66
2022-08-31T09:29:04.027Z,100908.91
2022-08-31T09:31:37.678Z,100895.19
2022-08-31T09:34:09.183Z,100898.91
2022-08-31T09:36:40.959Z,100899.91
2022-08-31T09:39:37.371Z,100888.78
2022-08-31T09:42:14.165Z,100882.94
2022-08-31T09:44:41.973Z,100885.19
2022-08-31T09:47:28.144Z,100877.09
2022-08-31T09:49:58.126Z,100868.78
2022-08-31T09:55:40.319Z,100855.25
2022-08-31T09:58:11.479Z,100863.13
2022-08-31T10:00:40.936Z,100857.38
2022-08-31T10:03:22.289Z,100855.84
2022-08-31T10:05:54.823Z,100856.03
2022-08-31T10:08:32.985Z,100833.28
2022-08-31T10:11:06.515Z,100840.16
2022-08-31T10:13:36.499Z,100839.16
2022-08-31T10:16:23.104Z,100836.13
2022-08-31T10:19:01.715Z,100842.97
2022-08-31T10:21:40.745Z,100839.28
2022-08-31T10:24:20.917Z,100831.34
2022-08-31T10:26:53.482Z,100834.53
2022-08-31T10:29:32.003Z,100822.47
2022-08-31T10:32:01.900Z,100814.88
2022-08-31T10:34:52.074Z,100795.41
2022-08-31T10:37:25.092Z,100793.41
2022-08-31T10:40:18.251Z,100796.84
2022-08-31T10:43:09.491Z,100791.63
2022-08-31T10:45:39.723Z,100786.41
2022-08-31T10:48:15.725Z,100788.69
2022-08-31T10:50:49.058Z,100781.47
2022-08-31T10:53:31.922Z,100773.56
2022-08-31T10:56:02.510Z,100769.63
2022-08-31T10:58:50.932Z,100775.31
2022-08-31T11:01:23.864Z,100775.00
2022-08-31T11:04:04.693Z,100777.63
2022-08-31T11:06:47.309Z,100788.00
2022-08-31T11:09:24.378Z,100778.84
2022-08-31T11:12:05.514Z,100784.72
2022-08-31T11:14:45.330Z,100769.72
2022-08-31T11:17:18.947Z,100774.41
2022-08-31T11:24:39.180Z,100777.19
2022-08-31T11:27:23.766Z,100772.25
2022-08-31T11:29:58.407Z,100763.28
2022-08-31T11:36:55.574Z,100765.97
2022-08-31T11:39:45.677Z,100767.41
2022-08-31T11:42:19.015Z,100767.91
2022-08-31T11:45:02.345Z,100762.28
2022-08-31T11:47:37.312Z,100760.56
2022-08-31T11:50:11.975Z,100759.53
2022-08-31T11:52:43.669Z,100752.28
2022-08-31T11:55:17.610Z,100735.00
2022-08-31T11:58:11.696Z,100739.75
2022-08-31T12:00:44.061Z,100731.84
2022-08-31T12:03:32.318Z,100730.06
2022-08-31T12:06:00.195Z,100736.31
2022-08-31T12:08:32.535Z,100740.34
2022-08-31T12:10:59.843Z,100752.88
2022-08-31T12:13:31.087Z,100757.59
2022-08-31T12:16:04.301Z,100762.94
2022-08-31T12:18:41.348Z,100758.47
2022-08-31T12:24:24.907Z,100755.88
2022-08-31T12:27:05.258Z,100754.38
2022-08-31T12:30:01.129Z,100747.94
2022-08-31T12:32:30.051Z,100737.75
2022-08-31T12:35:13.548Z,100736.19
2022-08-31T12:37:41.441Z,100731.19
2022-08-31T12:40:09.317Z,100722.91
2022-08-31T12:52:10.884Z,100719.47
2022-08-31T13:03:15.394Z,100710.63
2022-08-31T13:05:46.925Z,100709.97
2022-08-31T13:09:05.040Z,100701.88
2022-08-31T13:16:46.128Z,100695.41
2022-08-31T13:19:42.074Z,100675.50
2022-08-31T13:22:12.201Z,100679.94
2022-08-31T13:24:51.359Z,100681.38
2022-08-31T13:27:22.784Z,100669.97
2022-08-31T13:30:19.184Z,100680.00
2022-08-31T13:33:53.977Z,100672.41
2022-08-31T13:39:28.917Z,100663.94
2022-08-31T13:41:59.488Z,100653.22
2022-08-31T13:44:31.807Z,100647.22
2022-08-31T13:47:01.451Z,100646.50
2022-08-31T13:49:35.772Z,100641.53
2022-08-31T13:52:03.988Z,100637.25
2022-08-31T13:54:33.995Z,100637.94
2022-08-31T13:57:20.044Z,100637.69
2022-08-31T13:59:47.758Z,100649.72
2022-08-31T14:03:08.245Z,100640.38
2022-08-31T14:05:40.454Z,100636.31
2022-08-31T14:13:20.197Z,100644.09
2022-08-31T14:15:50.622Z,100641.97
2022-08-31T14:18:45.282Z,100642.72
2022-08-31T14:21:25.379Z,100636.75
2022-08-31T14:23:54.834Z,100636.78
2022-08-31T14:26:28.202Z,100630.81
2022-08-31T14:29:21.246Z,100633.75
2022-08-31T14:31:52.223Z,100633.03
2022-08-31T14:34:49.472Z,100633.19
2022-08-31T14:37:22.577Z,100622.78
2022-08-31T14:40:15.310Z,100623.41
2022-08-31T14:43:33.970Z,100614.25
2022-08-31T14:46:03.522Z,100616.97
2022-08-31T14:49:24.127Z,100620.28
2022-08-31T14:51:51.546Z,100619.81
2022-08-31T14:54:19.470Z,100626.13
2022-08-31T14:56:50.444Z,100620.06
2022-08-31T14:59:19.464Z,100625.56
2022-08-31T15:01:51.006Z,100630.28
2022-08-31T15:04:22.093Z,100627.94
2022-08-31T15:06:50.596Z,100618.28
2022-08-31T15:10:07.989Z,100610.53
2022-08-31T15:12:35.880Z,100614.78
2022-08-31T15:15:08.217Z,100613.59
2022-08-31T15:17:39.697Z,100612.31
2022-08-31T15:20:08.561Z,100608.94
2022-08-31T15:23:04.413Z,100611.31
2022-08-31T15:25:31.925Z,100610.53
2022-08-31T15:28:49.048Z,100606.56
2022-08-31T15:31:23.827Z,100605.53
2022-08-31T15:34:30.891Z,100594.19
2022-08-31T15:41:04.966Z,100591.03
2022-08-31T15:43:36.298Z,100588.31
2022-08-31T15:46:03.865Z,100587.56
2022-08-31T15:48:49.737Z,100593.34
2022-08-31T15:51:23.495Z,100591.53
2022-08-31T15:54:06.495Z,100593.31
2022-08-31T15:57:07.352Z,100597.91
2022-08-31T16:03:17.737Z,100583.56
2022-08-31T16:05:46.120Z,100576.00
2022-08-31T16:12:21.287Z,100575.69
2022-08-31T16:14:52.490Z,100579.72
2022-08-31T16:17:20.229Z,100578.69
2022-08-31T16:20:18.373Z,100575.22
2022-08-31T16:22:48.417Z,100570.97
2022-08-31T16:25:48.319Z,100563.44
2022-08-31T16:28:17.819Z,100570.06
2022-08-31T16:30:45.497Z,100566.09
2022-08-31T16:33:13.083Z,100568.53
2022-08-31T16:35:47.965Z,100571.91
2022-08-31T16:38:17.867Z,100567.75
2022-08-31T16:40:47.480Z,100579.19
2022-08-31T16:43:17.245Z,100576.78
2022-08-31T16:46:30.394Z,100585.97
2022-08-31T16:49:36.940Z,100591.53
2022-08-31T16:52:11.381Z,100600.16
2022-08-31T16:54:45.135Z,100602.13
2022-08-31T16:57:23.708Z,100607.84
2022-08-31T16:59:55.309Z,100608.94
2022-08-31T17:02:23.481Z,100611.09
2022-08-31T17:04:53.120Z,100601.41
2022-08-31T17:07:24.105Z,100598.28
2022-08-31T17:09:55.948Z,100609.94
2022-08-31T17:12:26.302Z,100600.94
2022-08-31T17:14:54.469Z,100607.94
2022-08-31T17:21:50.899Z,100616.69
2022-08-31T17:24:21.798Z,100623.31
2022-08-31T17:30:45.340Z,100632.31
2022-08-31T17:33:15.279Z,100630.44
2022-08-31T17:35:45.966Z,100641.78
2022-08-31T17:41:50.493Z,100645.97
2022-08-31T17:44:48.143Z,100638.25
2022-08-31T17:51:35.725Z,100641.66
2022-08-31T17:57:05.609Z,100639.88
2022-08-31T17:59:39.287Z,100646.38
2022-08-31T18:02:08.548Z,100644.03
2022-08-31T18:04:36.778Z,100641.16
2022-08-31T18:07:06.858Z,100647.44
2022-08-31T18:09:39.160Z,100636.88
2022-08-31T18:12:09.158Z,100640.28
2022-08-31T18:23:23.008Z,100649.66
2022-08-31T18:25:50.925Z,100656.94
2022-08-31T18:29:08.586Z,100650.34
2022-08-31T18:31:37.639Z,100648.09
2022-08-31T18:34:57.075Z,100648.63
2022-08-31T18:37:25.988Z,100661.50
2022-08-31T18:40:13.327Z,100660.81
2022-08-31T18:43:33.861Z,100681.03
2022-08-31T18:46:04.089Z,100677.13
2022-08-31T18:48:37.561Z,100679.69
2022-08-31T18:51:08.397Z,100679.69
2022-08-31T18:53:36.259Z,100679.91
2022-08-31T18:56:10.674Z,100678.31
2022-08-31T19:03:52.177Z,100690.13
2022-08-31T19:06:21.622Z,100694.75
2022-08-31T19:09:42.574Z,100692.44
2022-08-31T19:12:10.949Z,100690.03
2022-08-31T19:14:41.012Z,100693.59
2022-08-31T19:17:09.292Z,100697.38
2022-08-31T19:20:05.893Z,100690.13
2022-08-31T19:22:35.111Z,100697.03
2022-08-31T19:25:03.256Z,100684.53
2022-08-31T19:27:30.705Z,100698.78
2022-08-31T19:29:59.303Z,100694.88
2022-08-31T19:36:14.690Z,100702.00
2022-08-31T19:39:13.049Z,100697.38
2022-08-31T19:41:49.235Z,100692.47
2022-08-31T19:44:55.924Z,100697.59
2022-08-31T19:48:25.720Z,100703.00
2022-08-31T19:50:53.522Z,100701.31
2022-08-31T19:53:22.869Z,100697.28
2022-08-31T19:55:54.233Z,100696.06
2022-08-31T19:59:14.474Z,100698.19
2022-08-31T20:01:42.220Z,100695.13
2022-08-31T20:04:14.388Z,100689.38
2022-08-31T20:06:45.512Z,100692.38
2022-08-31T20:09:14.198Z,100686.50
2022-08-31T20:11:42.305Z,100691.03
2022-08-31T20:14:10.820Z,100693.56
2022-08-31T20:16:43.340Z,100695.91
2022-08-31T20:19:13.475Z,100692.28
2022-08-31T20:21:42.138Z,100688.41
2022-08-31T20:24:13.811Z,100687.94
2022-08-31T20:26:47.496Z,100699.56
2022-08-31T20:29:20.207Z,100692.31
2022-08-31T20:31:49.305Z,100687.81
2022-08-31T20:34:18.895Z,100701.38
2022-08-31T20:36:51.022Z,100700.94
2022-08-31T20:39:19.782Z,100697.38
2022-08-31T20:41:47.931Z,100700.06
2022-08-31T20:44:20.869Z,100703.78
2022-08-31T20:47:11.493Z,100714.44
2022-08-31T20:49:44.279Z,100707.91
2022-08-31T20:52:12.954Z,100708.63
2022-08-31T20:54:43.180Z,100712.00
2022-08-31T20:57:11.486Z,100713.97
2022-08-31T20:59:41.653Z,100712.00
2022-08-31T21:02:09.570Z,100712.00
2022-08-31T21:04:38.791Z,100707.63
2022-08-31T21:07:11.915Z,100702.66
2022-08-31T21:09:41.081Z,100709.31
2022-08-31T21:12:09.226Z,100703.09
2022-08-31T21:14:37.080Z,100698.97
2022-08-31T21:17:07.877Z,100696.63
2022-08-31T21:19:38.512Z,100704.91
2022-08-31T21:22:09.732Z,100703.50
2022-08-31T21:24:38.301Z,100700.59
2022-08-31T21:27:07.001Z,100700.06
2022-08-31T21:29:36.552Z,100688.28
2022-08-31T21:32:09.683Z,100697.56
2022-08-31T21:34:37.426Z,100685.59
2022-08-31T21:37:08.215Z,100679.63
2022-08-31T21:39:36.029Z,100688.38
2022-08-31T21:42:04.035Z,100691.16
2022-08-31T21:44:33.412Z,100689.44
2022-08-31T21:47:00.856Z,100697.16
2022-08-31T21:49:29.239Z,100696.66
2022-08-31T21:51:57.888Z,100683.31
2022-08-31T21:54:27.441Z,100691.34
2022-08-31T21:56:55.888Z,100691.97
2022-08-31T21:59:50.246Z,100690.94
2022-08-31T22:02:17.720Z,100695.81
2022-08-31T22:04:47.508Z,100684.69
2022-08-31T22:07:15.414Z,100691.19
2022-08-31T22:09:44.967Z,100681.41
2022-08-31T22:12:15.951Z,100686.63
2022-08-31T22:14:44.855Z,100676.56
2022-08-31T22:17:13.087Z,100681.91
2022-08-31T22:19:44.176Z,100677.69
2022-08-31T22:22:13.156Z,100683.63
2022-08-31T22:24:43.386Z,100680.63
2022-08-31T22:27:12.187Z,100682.38
2022-08-31T22:29:42.166Z,100684.78
2022-08-31T22:32:13.822Z,100684.06
2022-08-31T22:34:43.903Z,100686.03
2022-08-31T22:37:13.956Z,100679.06
2022-08-31T22:39:42.627Z,100678.91
2022-08-31T22:42:13.246Z,100678.78
2022-08-31T22:44:42.651Z,100681.81
2022-08-31T22:47:09.980Z,100679.75
2022-08-31T22:49:37.496Z,100669.09
2022-08-31T22:52:07.580Z,100672.38
2022-08-31T22:54:37.100Z,100663.88
2022-08-31T22:57:09.378Z,100665.63
2022-08-31T23:03:20.709Z,100661.38
2022-08-31T23:10:01.364Z,100663.19
2022-08-31T23:12:31.223Z,100661.25
2022-08-31T23:15:48.971Z,100663.09
2022-08-31T23:18:20.457Z,100662.47
2022-08-31T23:20:49.672Z,100667.06
2022-08-31T23:23:17.230Z,100652.81
2022-08-31T23:25:47.326Z,100651.94
2022-08-31T23:28:47.094Z,100654.91
2022-08-31T23:31:14.772Z,100661.44
2022-08-31T23:33:44.695Z,100651.34
2022-08-31T23:36:19.095Z,100652.81
2022-08-31T23:38:49.764Z,100653.22
2022-08-31T23:41:18.556Z,100648.88
2022-08-31T23:43:52.375Z,100643.28
2022-08-31T23:46:20.662Z,100637.94
2022-08-31T23:48:50.871Z,100632.81
2022-08-31T23:51:19.737Z,100637.38
2022-08-31T23:53:54.100Z,100624.03
2022-08-31T23:56:32.674Z,100627.69
2022-08-31T23:59:01.201Z,100636.84
